sensor_id;sensor_type;location;lat;lon;timestamp;temperature;humidity
46117;DHT22;32591;48.102;11.772;2023-04-23T00:00:30;15.00;99.90
46117;DHT22;32591;48.102;11.772;2023-04-23T00:03:01;15.10;99.90
46117;DHT22;32591;48.102;11.772;2023-04-23T00:05:34;15.10;99.90
46117;DHT22;32591;48.102;11.772;2023-04-23T00:08:02;15.10;99.90
46117;DHT22;32591;48.102;11.772;2023-04-23T00:10:30;15.10;99.90
46117;DHT22;32591;48.102;11.772;2023-04-23T00:12:58;15.00;99.90
46117;DHT22;32591;48.102;11.772;2023-04-23T00:15:26;15.00;99.90
46117;DHT22;32591;48.102;11.772;2023-04-23T00:17:55;14.90;99.90
46117;DHT22;32591;48.102;11.772;2023-04-23T00:20:22;14.90;99.90
46117;DHT22;32591;48.102;11.772;2023-04-23T00:22:49;14.90;99.90
46117;DHT22;32591;48.102;11.772;2023-04-23T00:25:16;14.90;99.90
46117;DHT22;32591;48.102;11.772;2023-04-23T00:27:43;14.90;99.90
46117;DHT22;32591;48.102;11.772;2023-04-23T00:30:10;14.80;99.90
46117;DHT22;32591;48.102;11.772;2023-04-23T00:32:37;14.80;99.90
46117;DHT22;32591;48.102;11.772;2023-04-23T00:35:07;14.80;99.90
46117;DHT22;32591;48.102;11.772;2023-04-23T00:37:34;14.80;99.90
46117;DHT22;32591;48.102;11.772;2023-04-23T00:40:01;14.80;99.90
46117;DHT22;32591;48.102;11.772;2023-04-23T00:42:29;14.80;99.90
46117;DHT22;32591;48.102;11.772;2023-04-23T00:44:56;14.80;99.90
46117;DHT22;32591;48.102;11.772;2023-04-23T00:47:24;14.80;99.90
46117;DHT22;32591;48.102;11.772;2023-04-23T00:49:51;14.80;99.90
46117;DHT22;32591;48.102;11.772;2023-04-23T00:52:21;14.80;99.90
46117;DHT22;32591;48.102;11.772;2023-04-23T00:54:48;14.80;99.90
46117;DHT22;32591;48.102;11.772;2023-04-23T00:57:15;14.80;99.90
46117;DHT22;32591;48.102;11.772;2023-04-23T00:59:42;14.80;99.90
46117;DHT22;32591;48.102;11.772;2023-04-23T01:02:11;14.70;99.90
46117;DHT22;32591;48.102;11.772;2023-04-23T01:04:39;14.80;99.90
46117;DHT22;32591;48.102;11.772;2023-04-23T01:07:06;14.80;99.90
46117;DHT22;32591;48.102;11.772;2023-04-23T01:09:35;14.80;99.90
46117;DHT22;32591;48.102;11.772;2023-04-23T01:12:03;14.70;99.90
46117;DHT22;32591;48.102;11.772;2023-04-23T01:14:32;14.70;99.90
46117;DHT22;32591;48.102;11.772;2023-04-23T01:16:59;14.70;99.90
46117;DHT22;32591;48.102;11.772;2023-04-23T01:19:26;14.70;99.90
46117;DHT22;32591;48.102;11.772;2023-04-23T01:21:53;14.70;99.90
46117;DHT22;32591;48.102;11.772;2023-04-23T01:24:25;14.70;99.90
46117;DHT22;32591;48.102;11.772;2023-04-23T01:26:53;14.60;99.90
46117;DHT22;32591;48.102;11.772;2023-04-23T01:29:20;14.60;99.90
46117;DHT22;32591;48.102;11.772;2023-04-23T01:31:48;14.50;99.90
46117;DHT22;32591;48.102;11.772;2023-04-23T01:34:16;14.50;99.90
46117;DHT22;32591;48.102;11.772;2023-04-23T01:36:44;14.50;99.90
46117;DHT22;32591;48.102;11.772;2023-04-23T01:39:11;14.40;99.90
46117;DHT22;32591;48.102;11.772;2023-04-23T01:41:39;14.40;99.90
46117;DHT22;32591;48.102;11.772;2023-04-23T01:44:06;14.40;99.90
46117;DHT22;32591;48.102;11.772;2023-04-23T01:46:33;14.40;99.90
46117;DHT22;32591;48.102;11.772;2023-04-23T01:49:00;14.40;99.90
46117;DHT22;32591;48.102;11.772;2023-04-23T01:51:28;14.30;99.90
46117;DHT22;32591;48.102;11.772;2023-04-23T01:53:56;14.30;99.90
46117;DHT22;32591;48.102;11.772;2023-04-23T01:56:26;14.30;99.90
46117;DHT22;32591;48.102;11.772;2023-04-23T01:58:54;14.20;99.90
46117;DHT22;32591;48.102;11.772;2023-04-23T02:01:21;14.30;99.90
46117;DHT22;32591;48.102;11.772;2023-04-23T02:03:49;14.30;99.90
46117;DHT22;32591;48.102;11.772;2023-04-23T02:06:16;14.30;99.90
46117;DHT22;32591;48.102;11.772;2023-04-23T02:08:44;14.30;99.90
46117;DHT22;32591;48.102;11.772;2023-04-23T02:11:11;14.30;99.90
46117;DHT22;32591;48.102;11.772;2023-04-23T02:13:38;14.30;99.90
46117;DHT22;32591;48.102;11.772;2023-04-23T02:16:07;14.20;99.90
46117;DHT22;32591;48.102;11.772;2023-04-23T02:18:34;14.20;99.90
46117;DHT22;32591;48.102;11.772;2023-04-23T02:21:01;14.30;99.90
46117;DHT22;32591;48.102;11.772;2023-04-23T02:23:29;14.20;99.90
46117;DHT22;32591;48.102;11.772;2023-04-23T02:25:56;14.20;99.90
46117;DHT22;32591;48.102;11.772;2023-04-23T02:28:23;14.20;99.90
46117;DHT22;32591;48.102;11.772;2023-04-23T02:30:50;14.20;99.90
46117;DHT22;32591;48.102;11.772;2023-04-23T02:33:18;14.30;99.90
46117;DHT22;32591;48.102;11.772;2023-04-23T02:35:46;14.30;99.90
46117;DHT22;32591;48.102;11.772;2023-04-23T02:38:13;14.30;99.90
46117;DHT22;32591;48.102;11.772;2023-04-23T02:40:40;14.30;99.90
46117;DHT22;32591;48.102;11.772;2023-04-23T02:43:07;14.30;99.90
46117;DHT22;32591;48.102;11.772;2023-04-23T02:45:34;14.30;99.90
46117;DHT22;32591;48.102;11.772;2023-04-23T02:48:01;14.30;99.90
46117;DHT22;32591;48.102;11.772;2023-04-23T02:50:30;14.20;99.90
46117;DHT22;32591;48.102;11.772;2023-04-23T02:52:57;14.20;99.90
46117;DHT22;32591;48.102;11.772;2023-04-23T02:55:23;14.20;99.90
46117;DHT22;32591;48.102;11.772;2023-04-23T02:57:54;14.20;99.90
46117;DHT22;32591;48.102;11.772;2023-04-23T03:00:21;14.10;99.90
46117;DHT22;32591;48.102;11.772;2023-04-23T03:02:48;14.10;99.90
46117;DHT22;32591;48.102;11.772;2023-04-23T03:05:15;14.10;99.90
46117;DHT22;32591;48.102;11.772;2023-04-23T03:07:44;14.00;99.90
46117;DHT22;32591;48.102;11.772;2023-04-23T03:10:11;14.00;99.90
46117;DHT22;32591;48.102;11.772;2023-04-23T03:12:38;13.90;99.90
46117;DHT22;32591;48.102;11.772;2023-04-23T03:15:06;13.90;99.90
46117;DHT22;32591;48.102;11.772;2023-04-23T03:17:33;13.80;99.90
46117;DHT22;32591;48.102;11.772;2023-04-23T03:20:00;13.80;99.90
46117;DHT22;32591;48.102;11.772;2023-04-23T03:22:27;13.80;99.90
46117;DHT22;32591;48.102;11.772;2023-04-23T03:24:55;13.70;99.90
46117;DHT22;32591;48.102;11.772;2023-04-23T03:27:22;13.70;99.90
46117;DHT22;32591;48.102;11.772;2023-04-23T03:29:49;13.70;99.90
46117;DHT22;32591;48.102;11.772;2023-04-23T03:32:16;13.70;99.90
46117;DHT22;32591;48.102;11.772;2023-04-23T03:34:43;13.70;99.90
46117;DHT22;32591;48.102;11.772;2023-04-23T03:37:10;13.70;99.90
46117;DHT22;32591;48.102;11.772;2023-04-23T03:39:37;13.60;99.90
46117;DHT22;32591;48.102;11.772;2023-04-23T03:42:05;13.60;99.90
46117;DHT22;32591;48.102;11.772;2023-04-23T03:44:32;13.50;99.90
46117;DHT22;32591;48.102;11.772;2023-04-23T03:46:59;13.50;99.90
46117;DHT22;32591;48.102;11.772;2023-04-23T03:49:26;13.50;99.90
46117;DHT22;32591;48.102;11.772;2023-04-23T03:51:53;13.60;99.90
46117;DHT22;32591;48.102;11.772;2023-04-23T03:54:20;13.50;99.90
46117;DHT22;32591;48.102;11.772;2023-04-23T03:56:49;13.60;99.90
46117;DHT22;32591;48.102;11.772;2023-04-23T03:59:17;13.60;99.90
46117;DHT22;32591;48.102;11.772;2023-04-23T04:01:45;13.60;99.90
46117;DHT22;32591;48.102;11.772;2023-04-23T04:04:13;13.60;99.90
46117;DHT22;32591;48.102;11.772;2023-04-23T04:06:40;13.60;99.90
46117;DHT22;32591;48.102;11.772;2023-04-23T04:09:07;13.60;99.90
46117;DHT22;32591;48.102;11.772;2023-04-23T04:11:34;13.50;99.90
46117;DHT22;32591;48.102;11.772;2023-04-23T04:14:01;13.60;99.90
46117;DHT22;32591;48.102;11.772;2023-04-23T04:16:29;13.60;99.90
46117;DHT22;32591;48.102;11.772;2023-04-23T04:18:56;13.60;99.90
46117;DHT22;32591;48.102;11.772;2023-04-23T04:21:23;13.60;99.90
46117;DHT22;32591;48.102;11.772;2023-04-23T04:23:50;13.50;99.90
46117;DHT22;32591;48.102;11.772;2023-04-23T04:26:18;13.50;99.90
46117;DHT22;32591;48.102;11.772;2023-04-23T04:28:45;13.60;99.90
46117;DHT22;32591;48.102;11.772;2023-04-23T04:31:12;13.60;99.90
46117;DHT22;32591;48.102;11.772;2023-04-23T04:33:41;13.60;99.90
46117;DHT22;32591;48.102;11.772;2023-04-23T04:36:10;13.60;99.90
46117;DHT22;32591;48.102;11.772;2023-04-23T04:38:38;13.60;99.90
46117;DHT22;32591;48.102;11.772;2023-04-23T04:41:06;13.50;99.90
46117;DHT22;32591;48.102;11.772;2023-04-23T04:43:33;13.60;99.90
46117;DHT22;32591;48.102;11.772;2023-04-23T04:46:00;13.60;99.90
46117;DHT22;32591;48.102;11.772;2023-04-23T04:48:29;13.60;99.90
46117;DHT22;32591;48.102;11.772;2023-04-23T04:50:58;13.60;99.90
46117;DHT22;32591;48.102;11.772;2023-04-23T04:53:25;13.60;99.90
46117;DHT22;32591;48.102;11.772;2023-04-23T04:55:52;13.50;99.90
46117;DHT22;32591;48.102;11.772;2023-04-23T04:58:18;13.40;99.90
46117;DHT22;32591;48.102;11.772;2023-04-23T05:00:46;13.40;99.90
46117;DHT22;32591;48.102;11.772;2023-04-23T05:03:16;13.30;99.90
46117;DHT22;32591;48.102;11.772;2023-04-23T05:05:43;13.30;99.90
46117;DHT22;32591;48.102;11.772;2023-04-23T05:08:12;13.20;99.90
46117;DHT22;32591;48.102;11.772;2023-04-23T05:10:41;12.90;99.90
46117;DHT22;32591;48.102;11.772;2023-04-23T05:13:08;12.80;99.90
46117;DHT22;32591;48.102;11.772;2023-04-23T05:15:35;12.70;99.90
46117;DHT22;32591;48.102;11.772;2023-04-23T05:18:03;12.70;99.90
46117;DHT22;32591;48.102;11.772;2023-04-23T05:20:31;12.70;99.90
46117;DHT22;32591;48.102;11.772;2023-04-23T05:22:58;12.60;99.90
46117;DHT22;32591;48.102;11.772;2023-04-23T05:25:28;12.60;99.90
46117;DHT22;32591;48.102;11.772;2023-04-23T05:27:55;12.60;99.90
46117;DHT22;32591;48.102;11.772;2023-04-23T05:30:22;12.60;99.90
46117;DHT22;32591;48.102;11.772;2023-04-23T05:32:49;12.70;99.90
46117;DHT22;32591;48.102;11.772;2023-04-23T05:35:16;12.70;99.90
46117;DHT22;32591;48.102;11.772;2023-04-23T05:37:43;12.70;99.90
46117;DHT22;32591;48.102;11.772;2023-04-23T05:40:11;12.80;99.90
46117;DHT22;32591;48.102;11.772;2023-04-23T05:42:39;12.90;99.90
46117;DHT22;32591;48.102;11.772;2023-04-23T05:45:07;12.90;99.90
46117;DHT22;32591;48.102;11.772;2023-04-23T05:47:35;12.90;99.90
46117;DHT22;32591;48.102;11.772;2023-04-23T05:50:02;12.90;99.90
46117;DHT22;32591;48.102;11.772;2023-04-23T05:52:29;12.80;99.90
46117;DHT22;32591;48.102;11.772;2023-04-23T05:54:58;12.80;99.90
46117;DHT22;32591;48.102;11.772;2023-04-23T05:57:24;12.80;99.90
46117;DHT22;32591;48.102;11.772;2023-04-23T05:59:53;12.70;99.90
46117;DHT22;32591;48.102;11.772;2023-04-23T06:02:20;12.70;99.90
46117;DHT22;32591;48.102;11.772;2023-04-23T06:04:47;12.70;99.90
46117;DHT22;32591;48.102;11.772;2023-04-23T06:07:14;12.80;99.90
46117;DHT22;32591;48.102;11.772;2023-04-23T06:09:41;12.90;99.90
46117;DHT22;32591;48.102;11.772;2023-04-23T06:12:09;12.90;99.90
46117;DHT22;32591;48.102;11.772;2023-04-23T06:14:36;13.00;99.90
46117;DHT22;32591;48.102;11.772;2023-04-23T06:17:04;13.00;99.90
46117;DHT22;32591;48.102;11.772;2023-04-23T06:19:31;13.00;99.90
46117;DHT22;32591;48.102;11.772;2023-04-23T06:21:58;12.90;99.90
46117;DHT22;32591;48.102;11.772;2023-04-23T06:24:25;12.80;99.90
46117;DHT22;32591;48.102;11.772;2023-04-23T06:26:52;12.70;99.90
46117;DHT22;32591;48.102;11.772;2023-04-23T06:29:20;12.60;99.90
46117;DHT22;32591;48.102;11.772;2023-04-23T06:31:47;12.50;99.90
46117;DHT22;32591;48.102;11.772;2023-04-23T06:34:15;12.50;99.90
46117;DHT22;32591;48.102;11.772;2023-04-23T06:36:42;12.50;99.90
46117;DHT22;32591;48.102;11.772;2023-04-23T06:39:09;12.50;99.90
46117;DHT22;32591;48.102;11.772;2023-04-23T06:41:36;12.50;99.90
46117;DHT22;32591;48.102;11.772;2023-04-23T06:44:03;12.50;99.90
46117;DHT22;32591;48.102;11.772;2023-04-23T06:46:30;12.40;99.90
46117;DHT22;32591;48.102;11.772;2023-04-23T06:48:57;12.30;99.90
46117;DHT22;32591;48.102;11.772;2023-04-23T06:51:26;12.20;99.90
46117;DHT22;32591;48.102;11.772;2023-04-23T06:53:53;12.10;99.90
46117;DHT22;32591;48.102;11.772;2023-04-23T06:56:20;12.00;99.90
46117;DHT22;32591;48.102;11.772;2023-04-23T06:58:47;12.00;99.90
46117;DHT22;32591;48.102;11.772;2023-04-23T07:01:14;12.00;99.90
46117;DHT22;32591;48.102;11.772;2023-04-23T07:03:41;12.10;99.90
46117;DHT22;32591;48.102;11.772;2023-04-23T07:06:08;12.10;99.90
46117;DHT22;32591;48.102;11.772;2023-04-23T07:08:37;12.20;99.90
46117;DHT22;32591;48.102;11.772;2023-04-23T07:11:04;12.30;99.90
46117;DHT22;32591;48.102;11.772;2023-04-23T07:13:31;12.30;99.90
46117;DHT22;32591;48.102;11.772;2023-04-23T07:15:58;12.40;99.90
46117;DHT22;32591;48.102;11.772;2023-04-23T07:18:25;12.50;99.90
46117;DHT22;32591;48.102;11.772;2023-04-23T07:20:52;12.50;99.90
46117;DHT22;32591;48.102;11.772;2023-04-23T07:23:19;12.60;99.90
46117;DHT22;32591;48.102;11.772;2023-04-23T07:25:47;12.60;99.90
46117;DHT22;32591;48.102;11.772;2023-04-23T07:28:15;12.60;99.90
46117;DHT22;32591;48.102;11.772;2023-04-23T07:30:42;12.60;99.90
46117;DHT22;32591;48.102;11.772;2023-04-23T07:33:08;12.60;99.90
46117;DHT22;32591;48.102;11.772;2023-04-23T07:35:35;12.70;99.90
46117;DHT22;32591;48.102;11.772;2023-04-23T07:38:02;12.70;99.90
46117;DHT22;32591;48.102;11.772;2023-04-23T07:40:30;12.90;99.90
46117;DHT22;32591;48.102;11.772;2023-04-23T07:42:58;12.90;99.90
46117;DHT22;32591;48.102;11.772;2023-04-23T07:45:25;12.80;99.90
46117;DHT22;32591;48.102;11.772;2023-04-23T07:47:52;12.90;99.90
46117;DHT22;32591;48.102;11.772;2023-04-23T07:50:19;12.90;99.90
46117;DHT22;32591;48.102;11.772;2023-04-23T07:52:47;12.90;99.90
46117;DHT22;32591;48.102;11.772;2023-04-23T07:55:15;12.90;99.90
46117;DHT22;32591;48.102;11.772;2023-04-23T07:57:42;13.00;99.90
46117;DHT22;32591;48.102;11.772;2023-04-23T08:00:11;13.00;99.90
46117;DHT22;32591;48.102;11.772;2023-04-23T08:02:39;13.00;99.90
46117;DHT22;32591;48.102;11.772;2023-04-23T08:05:06;13.00;99.90
46117;DHT22;32591;48.102;11.772;2023-04-23T08:07:34;13.10;99.90
46117;DHT22;32591;48.102;11.772;2023-04-23T08:10:01;13.20;99.90
46117;DHT22;32591;48.102;11.772;2023-04-23T08:12:30;13.20;99.90
46117;DHT22;32591;48.102;11.772;2023-04-23T08:15:00;13.20;99.90
46117;DHT22;32591;48.102;11.772;2023-04-23T08:17:29;13.30;99.90
46117;DHT22;32591;48.102;11.772;2023-04-23T08:19:56;13.30;99.90
46117;DHT22;32591;48.102;11.772;2023-04-23T08:22:23;13.30;99.90
46117;DHT22;32591;48.102;11.772;2023-04-23T08:24:50;13.20;99.90
46117;DHT22;32591;48.102;11.772;2023-04-23T08:27:17;13.20;99.90
46117;DHT22;32591;48.102;11.772;2023-04-23T08:29:45;13.10;99.90
46117;DHT22;32591;48.102;11.772;2023-04-23T08:32:13;13.10;99.90
46117;DHT22;32591;48.102;11.772;2023-04-23T08:34:41;13.20;99.90
46117;DHT22;32591;48.102;11.772;2023-04-23T08:37:08;13.20;99.90
46117;DHT22;32591;48.102;11.772;2023-04-23T08:39:35;13.10;99.90
46117;DHT22;32591;48.102;11.772;2023-04-23T08:42:07;13.20;99.90
46117;DHT22;32591;48.102;11.772;2023-04-23T08:44:37;13.30;99.90
46117;DHT22;32591;48.102;11.772;2023-04-23T08:47:10;13.50;99.90
46117;DHT22;32591;48.102;11.772;2023-04-23T08:49:42;13.50;99.90
46117;DHT22;32591;48.102;11.772;2023-04-23T08:52:15;13.50;99.90
46117;DHT22;32591;48.102;11.772;2023-04-23T08:54:46;13.60;99.90
46117;DHT22;32591;48.102;11.772;2023-04-23T08:57:16;13.70;99.90
46117;DHT22;32591;48.102;11.772;2023-04-23T08:59:44;14.00;99.90
46117;DHT22;32591;48.102;11.772;2023-04-23T09:02:12;14.30;99.90
46117;DHT22;32591;48.102;11.772;2023-04-23T09:04:43;14.50;99.90
46117;DHT22;32591;48.102;11.772;2023-04-23T09:07:11;14.70;99.90
46117;DHT22;32591;48.102;11.772;2023-04-23T09:09:40;14.80;99.90
46117;DHT22;32591;48.102;11.772;2023-04-23T09:12:08;14.90;99.90
46117;DHT22;32591;48.102;11.772;2023-04-23T09:14:35;15.00;99.90
46117;DHT22;32591;48.102;11.772;2023-04-23T09:17:03;14.90;99.90
46117;DHT22;32591;48.102;11.772;2023-04-23T09:19:30;14.80;99.90
46117;DHT22;32591;48.102;11.772;2023-04-23T09:21:58;14.80;99.90
46117;DHT22;32591;48.102;11.772;2023-04-23T09:24:26;14.70;99.90
46117;DHT22;32591;48.102;11.772;2023-04-23T09:26:56;14.70;99.90
46117;DHT22;32591;48.102;11.772;2023-04-23T09:29:23;14.80;99.90
46117;DHT22;32591;48.102;11.772;2023-04-23T09:31:53;14.80;99.90
46117;DHT22;32591;48.102;11.772;2023-04-23T09:34:22;14.80;99.90
46117;DHT22;32591;48.102;11.772;2023-04-23T09:36:51;14.80;99.90
46117;DHT22;32591;48.102;11.772;2023-04-23T09:39:21;14.70;99.90
46117;DHT22;32591;48.102;11.772;2023-04-23T09:41:51;14.80;99.90
46117;DHT22;32591;48.102;11.772;2023-04-23T09:44:20;14.80;99.90
46117;DHT22;32591;48.102;11.772;2023-04-23T09:46:48;14.90;99.90
46117;DHT22;32591;48.102;11.772;2023-04-23T09:49:15;15.10;99.90
46117;DHT22;32591;48.102;11.772;2023-04-23T09:51:45;15.10;99.90
46117;DHT22;32591;48.102;11.772;2023-04-23T09:54:13;15.00;99.90
46117;DHT22;32591;48.102;11.772;2023-04-23T09:56:42;15.00;99.90
46117;DHT22;32591;48.102;11.772;2023-04-23T09:59:20;15.10;99.90
46117;DHT22;32591;48.102;11.772;2023-04-23T10:01:48;15.20;99.90
46117;DHT22;32591;48.102;11.772;2023-04-23T10:04:17;15.30;99.90
46117;DHT22;32591;48.102;11.772;2023-04-23T10:06:45;15.30;99.90
46117;DHT22;32591;48.102;11.772;2023-04-23T10:09:13;15.30;99.90
46117;DHT22;32591;48.102;11.772;2023-04-23T10:11:42;15.30;99.90
46117;DHT22;32591;48.102;11.772;2023-04-23T10:14:10;15.30;99.90
46117;DHT22;32591;48.102;11.772;2023-04-23T10:16:38;15.30;99.90
46117;DHT22;32591;48.102;11.772;2023-04-23T10:19:08;15.30;99.90
46117;DHT22;32591;48.102;11.772;2023-04-23T10:21:38;15.30;99.90
46117;DHT22;32591;48.102;11.772;2023-04-23T10:24:06;15.40;99.90
46117;DHT22;32591;48.102;11.772;2023-04-23T10:26:37;15.40;99.90
46117;DHT22;32591;48.102;11.772;2023-04-23T10:29:10;15.40;99.90
46117;DHT22;32591;48.102;11.772;2023-04-23T10:31:41;15.40;99.90
46117;DHT22;32591;48.102;11.772;2023-04-23T10:34:09;15.50;99.90
46117;DHT22;32591;48.102;11.772;2023-04-23T10:36:36;16.20;99.90
46117;DHT22;32591;48.102;11.772;2023-04-23T10:39:04;16.70;99.90
46117;DHT22;32591;48.102;11.772;2023-04-23T10:41:35;16.60;99.90
46117;DHT22;32591;48.102;11.772;2023-04-23T10:44:04;16.70;99.90
46117;DHT22;32591;48.102;11.772;2023-04-23T10:46:33;16.90;99.90
46117;DHT22;32591;48.102;11.772;2023-04-23T10:49:07;17.00;99.90
46117;DHT22;32591;48.102;11.772;2023-04-23T10:51:39;16.90;99.90
46117;DHT22;32591;48.102;11.772;2023-04-23T10:54:08;16.90;99.90
46117;DHT22;32591;48.102;11.772;2023-04-23T10:56:39;17.00;99.90
46117;DHT22;32591;48.102;11.772;2023-04-23T10:59:17;16.90;99.90
46117;DHT22;32591;48.102;11.772;2023-04-23T11:01:45;16.90;99.90
46117;DHT22;32591;48.102;11.772;2023-04-23T11:04:20;16.90;99.90
46117;DHT22;32591;48.102;11.772;2023-04-23T11:06:53;17.00;99.90
46117;DHT22;32591;48.102;11.772;2023-04-23T11:09:29;17.10;99.90
46117;DHT22;32591;48.102;11.772;2023-04-23T11:11:57;17.30;99.90
46117;DHT22;32591;48.102;11.772;2023-04-23T11:14:41;17.20;99.90
46117;DHT22;32591;48.102;11.772;2023-04-23T11:17:12;17.00;99.90
46117;DHT22;32591;48.102;11.772;2023-04-23T11:19:43;16.90;99.90
46117;DHT22;32591;48.102;11.772;2023-04-23T11:22:39;16.80;99.90
46117;DHT22;32591;48.102;11.772;2023-04-23T11:25:11;17.10;99.90
46117;DHT22;32591;48.102;11.772;2023-04-23T11:27:40;17.20;99.90
46117;DHT22;32591;48.102;11.772;2023-04-23T11:30:11;17.40;99.90
46117;DHT22;32591;48.102;11.772;2023-04-23T11:32:40;17.50;99.90
46117;DHT22;32591;48.102;11.772;2023-04-23T11:35:12;17.70;99.90
46117;DHT22;32591;48.102;11.772;2023-04-23T11:37:40;17.80;99.90
46117;DHT22;32591;48.102;11.772;2023-04-23T11:40:10;17.70;99.90
46117;DHT22;32591;48.102;11.772;2023-04-23T11:42:42;17.60;99.90
46117;DHT22;32591;48.102;11.772;2023-04-23T11:45:15;17.50;99.90
46117;DHT22;32591;48.102;11.772;2023-04-23T11:47:44;17.30;99.90
46117;DHT22;32591;48.102;11.772;2023-04-23T11:50:18;17.30;99.90
46117;DHT22;32591;48.102;11.772;2023-04-23T11:52:46;17.50;99.90
46117;DHT22;32591;48.102;11.772;2023-04-23T11:55:13;17.60;99.90
46117;DHT22;32591;48.102;11.772;2023-04-23T11:57:42;17.70;99.90
46117;DHT22;32591;48.102;11.772;2023-04-23T12:00:12;18.10;99.90
46117;DHT22;32591;48.102;11.772;2023-04-23T12:02:55;18.10;99.90
46117;DHT22;32591;48.102;11.772;2023-04-23T12:05:28;18.10;99.90
46117;DHT22;32591;48.102;11.772;2023-04-23T12:08:06;18.30;99.90
46117;DHT22;32591;48.102;11.772;2023-04-23T12:10:41;18.60;99.90
46117;DHT22;32591;48.102;11.772;2023-04-23T12:13:12;18.50;99.90
46117;DHT22;32591;48.102;11.772;2023-04-23T12:15:45;18.50;99.90
46117;DHT22;32591;48.102;11.772;2023-04-23T12:18:12;18.40;99.90
46117;DHT22;32591;48.102;11.772;2023-04-23T12:20:41;18.30;99.90
46117;DHT22;32591;48.102;11.772;2023-04-23T12:23:08;18.30;99.90
46117;DHT22;32591;48.102;11.772;2023-04-23T12:25:35;18.40;99.90
46117;DHT22;32591;48.102;11.772;2023-04-23T12:28:03;18.30;99.90
46117;DHT22;32591;48.102;11.772;2023-04-23T12:30:33;18.30;99.90
46117;DHT22;32591;48.102;11.772;2023-04-23T12:33:01;18.60;99.90
46117;DHT22;32591;48.102;11.772;2023-04-23T12:35:38;18.90;99.90
46117;DHT22;32591;48.102;11.772;2023-04-23T12:38:20;18.70;99.90
46117;DHT22;32591;48.102;11.772;2023-04-23T12:40:48;18.50;99.90
46117;DHT22;32591;48.102;11.772;2023-04-23T12:43:15;18.40;99.90
46117;DHT22;32591;48.102;11.772;2023-04-23T12:45:42;18.30;99.90
46117;DHT22;32591;48.102;11.772;2023-04-23T12:48:10;18.20;99.90
46117;DHT22;32591;48.102;11.772;2023-04-23T12:50:37;18.20;99.90
46117;DHT22;32591;48.102;11.772;2023-04-23T12:53:05;18.40;99.90
46117;DHT22;32591;48.102;11.772;2023-04-23T12:55:33;18.80;99.90
46117;DHT22;32591;48.102;11.772;2023-04-23T12:58:00;19.30;99.90
46117;DHT22;32591;48.102;11.772;2023-04-23T13:00:27;19.30;99.90
46117;DHT22;32591;48.102;11.772;2023-04-23T13:02:54;19.10;99.90
46117;DHT22;32591;48.102;11.772;2023-04-23T13:05:21;19.00;99.90
46117;DHT22;32591;48.102;11.772;2023-04-23T13:07:48;18.80;99.90
46117;DHT22;32591;48.102;11.772;2023-04-23T13:10:20;18.70;99.90
46117;DHT22;32591;48.102;11.772;2023-04-23T13:12:46;18.40;99.90
46117;DHT22;32591;48.102;11.772;2023-04-23T13:15:13;18.40;99.90
46117;DHT22;32591;48.102;11.772;2023-04-23T13:17:40;18.20;99.90
46117;DHT22;32591;48.102;11.772;2023-04-23T13:20:08;18.10;99.90
46117;DHT22;32591;48.102;11.772;2023-04-23T13:22:35;18.10;99.90
46117;DHT22;32591;48.102;11.772;2023-04-23T13:25:02;18.30;99.90
46117;DHT22;32591;48.102;11.772;2023-04-23T13:27:31;18.40;99.90
46117;DHT22;32591;48.102;11.772;2023-04-23T13:29:58;18.60;99.90
46117;DHT22;32591;48.102;11.772;2023-04-23T13:32:26;18.80;99.90
46117;DHT22;32591;48.102;11.772;2023-04-23T13:34:56;19.10;99.90
46117;DHT22;32591;48.102;11.772;2023-04-23T13:37:28;19.20;99.90
46117;DHT22;32591;48.102;11.772;2023-04-23T13:39:55;19.30;99.90
46117;DHT22;32591;48.102;11.772;2023-04-23T13:42:22;19.50;99.90
46117;DHT22;32591;48.102;11.772;2023-04-23T13:44:51;19.70;99.90
46117;DHT22;32591;48.102;11.772;2023-04-23T13:47:18;20.00;99.90
46117;DHT22;32591;48.102;11.772;2023-04-23T13:49:44;20.00;99.90
46117;DHT22;32591;48.102;11.772;2023-04-23T13:52:11;20.00;99.90
46117;DHT22;32591;48.102;11.772;2023-04-23T13:54:38;20.10;99.90
46117;DHT22;32591;48.102;11.772;2023-04-23T13:57:05;19.90;99.90
46117;DHT22;32591;48.102;11.772;2023-04-23T13:59:33;19.80;99.90
46117;DHT22;32591;48.102;11.772;2023-04-23T14:02:01;19.70;99.90
46117;DHT22;32591;48.102;11.772;2023-04-23T14:04:28;19.50;99.90
46117;DHT22;32591;48.102;11.772;2023-04-23T14:06:55;19.40;99.90
46117;DHT22;32591;48.102;11.772;2023-04-23T14:09:22;19.40;99.90
46117;DHT22;32591;48.102;11.772;2023-04-23T14:11:50;19.40;99.90
46117;DHT22;32591;48.102;11.772;2023-04-23T14:14:17;19.30;99.90
46117;DHT22;32591;48.102;11.772;2023-04-23T14:16:44;19.40;99.90
46117;DHT22;32591;48.102;11.772;2023-04-23T14:19:12;19.40;99.90
46117;DHT22;32591;48.102;11.772;2023-04-23T14:21:39;19.40;99.90
46117;DHT22;32591;48.102;11.772;2023-04-23T14:24:08;19.10;99.90
46117;DHT22;32591;48.102;11.772;2023-04-23T14:26:36;19.10;99.90
46117;DHT22;32591;48.102;11.772;2023-04-23T14:29:09;19.20;99.90
46117;DHT22;32591;48.102;11.772;2023-04-23T14:31:40;19.50;99.90
46117;DHT22;32591;48.102;11.772;2023-04-23T14:34:07;19.90;99.90
46117;DHT22;32591;48.102;11.772;2023-04-23T14:36:35;20.20;99.80
46117;DHT22;32591;48.102;11.772;2023-04-23T14:39:02;20.10;99.60
46117;DHT22;32591;48.102;11.772;2023-04-23T14:41:30;19.80;99.90
46117;DHT22;32591;48.102;11.772;2023-04-23T14:43:58;19.70;99.90
46117;DHT22;32591;48.102;11.772;2023-04-23T14:46:26;19.40;99.90
46117;DHT22;32591;48.102;11.772;2023-04-23T14:48:53;19.20;99.90
46117;DHT22;32591;48.102;11.772;2023-04-23T14:51:20;19.20;99.90
46117;DHT22;32591;48.102;11.772;2023-04-23T14:53:48;19.10;99.90
46117;DHT22;32591;48.102;11.772;2023-04-23T14:56:16;19.00;99.90
46117;DHT22;32591;48.102;11.772;2023-04-23T14:58:43;18.90;99.90
46117;DHT22;32591;48.102;11.772;2023-04-23T15:01:10;19.00;99.90
46117;DHT22;32591;48.102;11.772;2023-04-23T15:03:37;19.10;99.90
46117;DHT22;32591;48.102;11.772;2023-04-23T15:06:05;19.00;99.90
46117;DHT22;32591;48.102;11.772;2023-04-23T15:08:32;18.90;99.90
46117;DHT22;32591;48.102;11.772;2023-04-23T15:11:01;18.90;99.90
46117;DHT22;32591;48.102;11.772;2023-04-23T15:13:35;18.70;99.90
46117;DHT22;32591;48.102;11.772;2023-04-23T15:16:07;18.50;99.90
46117;DHT22;32591;48.102;11.772;2023-04-23T15:18:44;18.40;99.90
46117;DHT22;32591;48.102;11.772;2023-04-23T15:21:11;18.30;99.90